Terminal Aerodrome Forecast
Issued by NWS

Home | Current Version | Previous Version | Text Only | Print | Product List | Glossary On
Versions: 1 2 3 4 5 6 7 8 9 10 11 12 13 14 15 16 17 18
000
FTUS41 KOKX 010900 AAA
TAFSWF
TAF AMD
KSWF 010900Z 0109/0212 00000KT P6SM BKN100
     FM011100 00000KT P6SM OVC070
     FM011400 21004KT 4SM -SN SCT025 OVC040
     FM011600 19004KT 2SM -SN OVC025
     FM012000 19006KT 1SM -SN OVC015
     FM020300 VRB03KT 2SM -SN OVC010
     FM020600 27008KT 4SM BR OVC020
      AMD NOT SKED=

USA.gov is the U.S. government's official web portal to all federal, state and local government web resources and services.